sensor_id;sensor_type;location;lat;lon;timestamp;P1;durP1;ratioP1;P2;durP2;ratioP2
14100;SDS011;7127;49.372;8.166;2023-03-31T00:01:40;1.63;;;0.70;;
14100;SDS011;7127;49.372;8.166;2023-03-31T00:04:07;2.03;;;1.00;;
14100;SDS011;7127;49.372;8.166;2023-03-31T00:06:37;1.90;;;0.60;;
14100;SDS011;7127;49.372;8.166;2023-03-31T00:09:06;2.60;;;1.10;;
14100;SDS011;7127;49.372;8.166;2023-03-31T00:11:34;2.40;;;1.07;;
14100;SDS011;7127;49.372;8.166;2023-03-31T00:14:03;2.40;;;1.10;;
14100;SDS011;7127;49.372;8.166;2023-03-31T00:16:31;1.27;;;0.80;;
14100;SDS011;7127;49.372;8.166;2023-03-31T00:18:58;2.93;;;1.00;;
14100;SDS011;7127;49.372;8.166;2023-03-31T00:21:26;1.13;;;0.77;;
14100;SDS011;7127;49.372;8.166;2023-03-31T00:23:58;1.57;;;1.00;;
14100;SDS011;7127;49.372;8.166;2023-03-31T00:26:27;2.20;;;0.90;;
14100;SDS011;7127;49.372;8.166;2023-03-31T00:28:55;2.13;;;0.93;;
14100;SDS011;7127;49.372;8.166;2023-03-31T00:31:24;2.80;;;1.07;;
14100;SDS011;7127;49.372;8.166;2023-03-31T00:33:52;1.83;;;0.80;;
14100;SDS011;7127;49.372;8.166;2023-03-31T00:36:19;1.10;;;0.73;;
14100;SDS011;7127;49.372;8.166;2023-03-31T00:38:51;2.53;;;1.27;;
14100;SDS011;7127;49.372;8.166;2023-03-31T00:41:19;1.43;;;0.90;;
14100;SDS011;7127;49.372;8.166;2023-03-31T00:43:59;2.33;;;1.20;;
14100;SDS011;7127;49.372;8.166;2023-03-31T00:46:32;3.33;;;0.97;;
14100;SDS011;7127;49.372;8.166;2023-03-31T00:49:02;1.70;;;1.00;;
14100;SDS011;7127;49.372;8.166;2023-03-31T00:51:30;3.53;;;1.00;;
14100;SDS011;7127;49.372;8.166;2023-03-31T00:53:59;2.67;;;1.20;;
14100;SDS011;7127;49.372;8.166;2023-03-31T00:56:31;1.63;;;0.80;;
14100;SDS011;7127;49.372;8.166;2023-03-31T00:59:02;2.73;;;1.07;;
14100;SDS011;7127;49.372;8.166;2023-03-31T01:01:33;3.27;;;1.10;;
14100;SDS011;7127;49.372;8.166;2023-03-31T01:04:03;2.87;;;1.10;;
14100;SDS011;7127;49.372;8.166;2023-03-31T01:06:31;1.77;;;0.90;;
14100;SDS011;7127;49.372;8.166;2023-03-31T01:08:59;2.33;;;1.00;;
14100;SDS011;7127;49.372;8.166;2023-03-31T01:11:31;2.63;;;0.70;;
14100;SDS011;7127;49.372;8.166;2023-03-31T01:14:00;2.27;;;1.17;;
14100;SDS011;7127;49.372;8.166;2023-03-31T01:16:28;3.40;;;1.00;;
14100;SDS011;7127;49.372;8.166;2023-03-31T01:18:56;2.00;;;0.80;;
14100;SDS011;7127;49.372;8.166;2023-03-31T01:21:31;2.17;;;0.87;;
14100;SDS011;7127;49.372;8.166;2023-03-31T01:24:33;2.80;;;1.17;;
14100;SDS011;7127;49.372;8.166;2023-03-31T01:27:24;1.83;;;0.97;;
14100;SDS011;7127;49.372;8.166;2023-03-31T01:30:22;2.20;;;1.00;;
14100;SDS011;7127;49.372;8.166;2023-03-31T01:33:18;2.17;;;1.07;;
14100;SDS011;7127;49.372;8.166;2023-03-31T01:36:17;1.23;;;0.70;;
14100;SDS011;7127;49.372;8.166;2023-03-31T01:42:10;2.60;;;1.00;;
14100;SDS011;7127;49.372;8.166;2023-03-31T01:44:42;3.03;;;0.97;;
14100;SDS011;7127;49.372;8.166;2023-03-31T01:47:13;3.13;;;1.00;;
14100;SDS011;7127;49.372;8.166;2023-03-31T01:49:50;1.73;;;0.80;;
14100;SDS011;7127;49.372;8.166;2023-03-31T01:52:23;1.50;;;0.77;;
14100;SDS011;7127;49.372;8.166;2023-03-31T01:54:59;1.40;;;0.67;;
14100;SDS011;7127;49.372;8.166;2023-03-31T01:57:32;2.23;;;0.67;;
14100;SDS011;7127;49.372;8.166;2023-03-31T02:00:02;2.07;;;0.93;;
14100;SDS011;7127;49.372;8.166;2023-03-31T02:02:35;2.00;;;0.87;;
14100;SDS011;7127;49.372;8.166;2023-03-31T02:05:05;1.57;;;0.77;;
14100;SDS011;7127;49.372;8.166;2023-03-31T02:07:36;1.00;;;0.80;;
14100;SDS011;7127;49.372;8.166;2023-03-31T02:10:08;1.87;;;0.90;;
14100;SDS011;7127;49.372;8.166;2023-03-31T02:12:37;2.00;;;1.10;;
14100;SDS011;7127;49.372;8.166;2023-03-31T02:15:08;1.43;;;0.80;;
14100;SDS011;7127;49.372;8.166;2023-03-31T02:17:38;1.93;;;0.90;;
14100;SDS011;7127;49.372;8.166;2023-03-31T02:20:10;2.60;;;1.00;;
14100;SDS011;7127;49.372;8.166;2023-03-31T02:22:41;2.90;;;1.17;;
14100;SDS011;7127;49.372;8.166;2023-03-31T02:25:12;2.00;;;1.17;;
14100;SDS011;7127;49.372;8.166;2023-03-31T02:27:43;1.40;;;0.93;;
14100;SDS011;7127;49.372;8.166;2023-03-31T02:30:14;2.67;;;0.87;;
14100;SDS011;7127;49.372;8.166;2023-03-31T02:32:41;1.70;;;0.83;;
14100;SDS011;7127;49.372;8.166;2023-03-31T02:35:12;0.80;;;0.60;;
14100;SDS011;7127;49.372;8.166;2023-03-31T02:37:42;1.30;;;0.60;;
14100;SDS011;7127;49.372;8.166;2023-03-31T02:40:13;2.30;;;1.00;;
14100;SDS011;7127;49.372;8.166;2023-03-31T02:42:44;2.40;;;0.70;;
14100;SDS011;7127;49.372;8.166;2023-03-31T02:48:09;1.27;;;0.80;;
14100;SDS011;7127;49.372;8.166;2023-03-31T02:50:44;0.73;;;0.57;;
14100;SDS011;7127;49.372;8.166;2023-03-31T02:53:26;1.90;;;0.87;;
14100;SDS011;7127;49.372;8.166;2023-03-31T02:56:08;1.20;;;0.60;;
14100;SDS011;7127;49.372;8.166;2023-03-31T02:58:53;0.93;;;0.63;;
14100;SDS011;7127;49.372;8.166;2023-03-31T03:01:40;0.40;;;0.33;;
14100;SDS011;7127;49.372;8.166;2023-03-31T03:04:19;0.97;;;0.57;;
14100;SDS011;7127;49.372;8.166;2023-03-31T03:07:00;1.53;;;0.60;;
14100;SDS011;7127;49.372;8.166;2023-03-31T03:09:35;1.17;;;0.63;;
14100;SDS011;7127;49.372;8.166;2023-03-31T03:12:12;1.60;;;0.80;;
14100;SDS011;7127;49.372;8.166;2023-03-31T03:14:45;0.80;;;0.53;;
14100;SDS011;7127;49.372;8.166;2023-03-31T03:17:17;1.93;;;0.70;;
14100;SDS011;7127;49.372;8.166;2023-03-31T03:19:52;0.80;;;0.63;;
14100;SDS011;7127;49.372;8.166;2023-03-31T03:22:21;1.10;;;0.60;;
14100;SDS011;7127;49.372;8.166;2023-03-31T03:24:48;0.77;;;0.60;;
14100;SDS011;7127;49.372;8.166;2023-03-31T03:27:17;2.03;;;0.73;;
14100;SDS011;7127;49.372;8.166;2023-03-31T03:29:46;1.23;;;0.80;;
14100;SDS011;7127;49.372;8.166;2023-03-31T03:32:13;1.37;;;0.60;;
14100;SDS011;7127;49.372;8.166;2023-03-31T03:34:40;1.10;;;0.70;;
14100;SDS011;7127;49.372;8.166;2023-03-31T03:37:07;1.37;;;0.80;;
14100;SDS011;7127;49.372;8.166;2023-03-31T03:39:34;1.17;;;0.60;;
14100;SDS011;7127;49.372;8.166;2023-03-31T03:42:01;1.10;;;0.70;;
14100;SDS011;7127;49.372;8.166;2023-03-31T03:44:29;2.07;;;0.90;;
14100;SDS011;7127;49.372;8.166;2023-03-31T03:46:56;1.47;;;0.67;;
14100;SDS011;7127;49.372;8.166;2023-03-31T03:49:23;1.43;;;0.70;;
14100;SDS011;7127;49.372;8.166;2023-03-31T03:51:50;2.10;;;1.03;;
14100;SDS011;7127;49.372;8.166;2023-03-31T03:54:17;1.13;;;0.77;;
14100;SDS011;7127;49.372;8.166;2023-03-31T03:56:44;0.73;;;0.37;;
14100;SDS011;7127;49.372;8.166;2023-03-31T03:59:11;2.67;;;1.10;;
14100;SDS011;7127;49.372;8.166;2023-03-31T04:01:39;1.80;;;0.80;;
14100;SDS011;7127;49.372;8.166;2023-03-31T04:04:06;1.83;;;0.97;;
14100;SDS011;7127;49.372;8.166;2023-03-31T04:06:33;2.13;;;0.87;;
14100;SDS011;7127;49.372;8.166;2023-03-31T04:09:00;1.23;;;0.73;;
14100;SDS011;7127;49.372;8.166;2023-03-31T04:11:27;1.57;;;0.80;;
14100;SDS011;7127;49.372;8.166;2023-03-31T04:13:54;2.67;;;0.90;;
14100;SDS011;7127;49.372;8.166;2023-03-31T04:16:21;2.53;;;0.93;;
14100;SDS011;7127;49.372;8.166;2023-03-31T04:18:50;2.10;;;1.00;;
14100;SDS011;7127;49.372;8.166;2023-03-31T04:21:20;1.93;;;1.00;;
14100;SDS011;7127;49.372;8.166;2023-03-31T04:23:49;1.67;;;0.90;;
14100;SDS011;7127;49.372;8.166;2023-03-31T04:26:23;2.13;;;1.00;;
14100;SDS011;7127;49.372;8.166;2023-03-31T04:28:55;2.27;;;1.27;;
14100;SDS011;7127;49.372;8.166;2023-03-31T04:31:24;2.00;;;0.93;;
14100;SDS011;7127;49.372;8.166;2023-03-31T04:33:56;2.77;;;1.00;;
14100;SDS011;7127;49.372;8.166;2023-03-31T04:36:26;1.40;;;0.70;;
14100;SDS011;7127;49.372;8.166;2023-03-31T04:38:55;1.27;;;0.90;;
14100;SDS011;7127;49.372;8.166;2023-03-31T04:41:23;2.30;;;0.97;;
14100;SDS011;7127;49.372;8.166;2023-03-31T04:43:51;1.93;;;1.07;;
14100;SDS011;7127;49.372;8.166;2023-03-31T04:46:18;1.77;;;0.93;;
14100;SDS011;7127;49.372;8.166;2023-03-31T04:48:45;1.17;;;0.73;;
14100;SDS011;7127;49.372;8.166;2023-03-31T04:51:14;2.20;;;0.77;;
14100;SDS011;7127;49.372;8.166;2023-03-31T04:53:40;1.70;;;1.00;;
14100;SDS011;7127;49.372;8.166;2023-03-31T04:56:07;0.80;;;0.60;;
14100;SDS011;7127;49.372;8.166;2023-03-31T04:58:34;1.87;;;0.97;;
14100;SDS011;7127;49.372;8.166;2023-03-31T05:01:01;1.40;;;0.73;;
14100;SDS011;7127;49.372;8.166;2023-03-31T05:03:30;1.77;;;0.90;;
14100;SDS011;7127;49.372;8.166;2023-03-31T05:05:57;1.97;;;0.80;;
14100;SDS011;7127;49.372;8.166;2023-03-31T05:08:25;1.43;;;0.90;;
14100;SDS011;7127;49.372;8.166;2023-03-31T05:10:52;2.00;;;0.90;;
14100;SDS011;7127;49.372;8.166;2023-03-31T05:13:19;1.77;;;1.00;;
14100;SDS011;7127;49.372;8.166;2023-03-31T05:15:46;1.17;;;0.90;;
14100;SDS011;7127;49.372;8.166;2023-03-31T05:18:14;3.50;;;1.17;;
14100;SDS011;7127;49.372;8.166;2023-03-31T05:20:41;1.13;;;0.90;;
14100;SDS011;7127;49.372;8.166;2023-03-31T05:23:08;1.67;;;0.83;;
14100;SDS011;7127;49.372;8.166;2023-03-31T05:25:36;1.13;;;0.83;;
14100;SDS011;7127;49.372;8.166;2023-03-31T05:28:03;1.77;;;1.10;;
14100;SDS011;7127;49.372;8.166;2023-03-31T05:30:30;2.77;;;0.90;;
14100;SDS011;7127;49.372;8.166;2023-03-31T05:32:57;1.90;;;1.20;;
14100;SDS011;7127;49.372;8.166;2023-03-31T05:35:24;1.83;;;0.90;;
14100;SDS011;7127;49.372;8.166;2023-03-31T05:37:51;1.63;;;1.00;;
14100;SDS011;7127;49.372;8.166;2023-03-31T05:40:18;1.27;;;0.93;;
14100;SDS011;7127;49.372;8.166;2023-03-31T05:42:46;1.90;;;1.03;;
14100;SDS011;7127;49.372;8.166;2023-03-31T05:45:13;2.30;;;1.00;;
14100;SDS011;7127;49.372;8.166;2023-03-31T05:47:40;3.53;;;1.10;;
14100;SDS011;7127;49.372;8.166;2023-03-31T05:50:07;2.57;;;1.07;;
14100;SDS011;7127;49.372;8.166;2023-03-31T05:52:35;2.60;;;0.90;;
14100;SDS011;7127;49.372;8.166;2023-03-31T05:55:02;1.70;;;1.27;;
14100;SDS011;7127;49.372;8.166;2023-03-31T05:57:29;1.40;;;0.90;;
14100;SDS011;7127;49.372;8.166;2023-03-31T05:59:57;2.00;;;1.10;;
14100;SDS011;7127;49.372;8.166;2023-03-31T06:02:24;3.37;;;1.20;;
14100;SDS011;7127;49.372;8.166;2023-03-31T06:04:51;3.13;;;1.17;;
14100;SDS011;7127;49.372;8.166;2023-03-31T06:07:18;2.50;;;1.20;;
14100;SDS011;7127;49.372;8.166;2023-03-31T06:09:46;1.70;;;1.10;;
14100;SDS011;7127;49.372;8.166;2023-03-31T06:12:13;2.27;;;1.20;;
14100;SDS011;7127;49.372;8.166;2023-03-31T06:14:40;3.07;;;1.40;;
14100;SDS011;7127;49.372;8.166;2023-03-31T06:17:08;3.40;;;1.47;;
14100;SDS011;7127;49.372;8.166;2023-03-31T06:19:35;2.07;;;1.20;;
14100;SDS011;7127;49.372;8.166;2023-03-31T06:22:02;4.20;;;1.50;;
14100;SDS011;7127;49.372;8.166;2023-03-31T06:24:29;2.63;;;1.30;;
14100;SDS011;7127;49.372;8.166;2023-03-31T06:26:56;2.53;;;1.30;;
14100;SDS011;7127;49.372;8.166;2023-03-31T06:29:25;2.33;;;1.30;;
14100;SDS011;7127;49.372;8.166;2023-03-31T06:31:52;1.80;;;1.30;;
14100;SDS011;7127;49.372;8.166;2023-03-31T06:34:20;2.17;;;1.50;;
14100;SDS011;7127;49.372;8.166;2023-03-31T06:36:47;2.73;;;1.40;;
14100;SDS011;7127;49.372;8.166;2023-03-31T06:39:15;1.63;;;1.50;;
14100;SDS011;7127;49.372;8.166;2023-03-31T06:41:41;3.23;;;1.60;;
14100;SDS011;7127;49.372;8.166;2023-03-31T06:44:08;2.67;;;1.70;;
14100;SDS011;7127;49.372;8.166;2023-03-31T06:46:35;2.33;;;1.53;;
14100;SDS011;7127;49.372;8.166;2023-03-31T06:49:02;1.80;;;1.40;;
14100;SDS011;7127;49.372;8.166;2023-03-31T06:51:31;2.70;;;1.50;;
14100;SDS011;7127;49.372;8.166;2023-03-31T06:53:58;2.97;;;1.60;;
14100;SDS011;7127;49.372;8.166;2023-03-31T06:56:25;2.00;;;1.57;;
14100;SDS011;7127;49.372;8.166;2023-03-31T06:58:52;2.73;;;1.50;;
14100;SDS011;7127;49.372;8.166;2023-03-31T07:01:19;1.90;;;1.43;;
14100;SDS011;7127;49.372;8.166;2023-03-31T07:03:46;2.63;;;1.70;;
14100;SDS011;7127;49.372;8.166;2023-03-31T07:06:13;2.37;;;1.57;;
14100;SDS011;7127;49.372;8.166;2023-03-31T07:08:42;2.63;;;1.70;;
14100;SDS011;7127;49.372;8.166;2023-03-31T07:11:08;3.10;;;1.60;;
14100;SDS011;7127;49.372;8.166;2023-03-31T07:13:36;1.87;;;1.30;;
14100;SDS011;7127;49.372;8.166;2023-03-31T07:16:03;3.10;;;1.70;;
14100;SDS011;7127;49.372;8.166;2023-03-31T07:18:31;2.83;;;1.70;;
14100;SDS011;7127;49.372;8.166;2023-03-31T07:21:00;1.83;;;1.40;;
14100;SDS011;7127;49.372;8.166;2023-03-31T07:23:27;2.53;;;1.70;;
14100;SDS011;7127;49.372;8.166;2023-03-31T07:25:56;2.13;;;1.80;;
14100;SDS011;7127;49.372;8.166;2023-03-31T07:28:26;2.57;;;1.70;;
14100;SDS011;7127;49.372;8.166;2023-03-31T07:30:53;3.00;;;1.70;;
14100;SDS011;7127;49.372;8.166;2023-03-31T07:33:20;2.70;;;1.80;;
14100;SDS011;7127;49.372;8.166;2023-03-31T07:35:46;3.47;;;1.90;;
14100;SDS011;7127;49.372;8.166;2023-03-31T07:38:13;3.00;;;1.97;;
14100;SDS011;7127;49.372;8.166;2023-03-31T07:40:40;1.97;;;1.70;;
14100;SDS011;7127;49.372;8.166;2023-03-31T07:43:10;3.50;;;1.67;;
14100;SDS011;7127;49.372;8.166;2023-03-31T07:45:38;1.73;;;1.50;;
14100;SDS011;7127;49.372;8.166;2023-03-31T07:48:05;1.93;;;1.47;;
14100;SDS011;7127;49.372;8.166;2023-03-31T07:50:32;2.03;;;1.23;;
14100;SDS011;7127;49.372;8.166;2023-03-31T07:52:59;2.30;;;1.40;;
14100;SDS011;7127;49.372;8.166;2023-03-31T07:55:26;2.20;;;1.17;;
14100;SDS011;7127;49.372;8.166;2023-03-31T07:57:53;2.17;;;1.43;;
14100;SDS011;7127;49.372;8.166;2023-03-31T08:00:22;1.83;;;1.27;;
14100;SDS011;7127;49.372;8.166;2023-03-31T08:02:52;2.30;;;1.27;;
14100;SDS011;7127;49.372;8.166;2023-03-31T08:05:19;1.10;;;1.00;;
14100;SDS011;7127;49.372;8.166;2023-03-31T08:07:47;2.80;;;1.07;;
14100;SDS011;7127;49.372;8.166;2023-03-31T08:10:16;0.87;;;0.83;;
14100;SDS011;7127;49.372;8.166;2023-03-31T08:12:44;1.50;;;1.00;;
14100;SDS011;7127;49.372;8.166;2023-03-31T08:15:11;3.07;;;1.37;;
14100;SDS011;7127;49.372;8.166;2023-03-31T08:17:40;2.20;;;1.33;;
14100;SDS011;7127;49.372;8.166;2023-03-31T08:20:07;2.10;;;1.40;;
14100;SDS011;7127;49.372;8.166;2023-03-31T08:22:35;3.67;;;1.50;;
14100;SDS011;7127;49.372;8.166;2023-03-31T08:25:02;2.63;;;1.43;;
14100;SDS011;7127;49.372;8.166;2023-03-31T08:27:31;2.33;;;1.27;;
14100;SDS011;7127;49.372;8.166;2023-03-31T08:29:59;3.30;;;1.80;;
14100;SDS011;7127;49.372;8.166;2023-03-31T08:32:28;1.83;;;1.20;;
14100;SDS011;7127;49.372;8.166;2023-03-31T08:34:57;2.90;;;1.73;;
14100;SDS011;7127;49.372;8.166;2023-03-31T08:37:24;4.60;;;1.83;;
14100;SDS011;7127;49.372;8.166;2023-03-31T08:39:52;2.23;;;1.37;;
14100;SDS011;7127;49.372;8.166;2023-03-31T08:42:19;2.37;;;1.30;;
14100;SDS011;7127;49.372;8.166;2023-03-31T08:44:53;3.77;;;1.53;;
14100;SDS011;7127;49.372;8.166;2023-03-31T08:47:24;3.67;;;1.73;;
14100;SDS011;7127;49.372;8.166;2023-03-31T08:49:55;2.73;;;1.40;;
14100;SDS011;7127;49.372;8.166;2023-03-31T08:52:28;2.50;;;1.67;;
14100;SDS011;7127;49.372;8.166;2023-03-31T08:55:00;3.27;;;1.50;;
14100;SDS011;7127;49.372;8.166;2023-03-31T08:57:31;2.63;;;1.40;;
14100;SDS011;7127;49.372;8.166;2023-03-31T09:00:08;1.93;;;1.20;;
14100;SDS011;7127;49.372;8.166;2023-03-31T09:02:41;2.43;;;1.30;;
14100;SDS011;7127;49.372;8.166;2023-03-31T09:05:29;1.60;;;0.90;;
14100;SDS011;7127;49.372;8.166;2023-03-31T09:08:12;2.23;;;0.90;;
14100;SDS011;7127;49.372;8.166;2023-03-31T09:10:50;1.50;;;0.83;;
14100;SDS011;7127;49.372;8.166;2023-03-31T09:13:35;1.80;;;0.90;;
14100;SDS011;7127;49.372;8.166;2023-03-31T09:16:13;1.00;;;0.80;;
14100;SDS011;7127;49.372;8.166;2023-03-31T09:18:41;1.93;;;0.97;;
14100;SDS011;7127;49.372;8.166;2023-03-31T09:21:13;1.90;;;1.00;;
14100;SDS011;7127;49.372;8.166;2023-03-31T09:23:45;1.70;;;1.23;;
14100;SDS011;7127;49.372;8.166;2023-03-31T09:26:23;1.90;;;1.20;;
14100;SDS011;7127;49.372;8.166;2023-03-31T09:28:52;3.00;;;1.30;;
14100;SDS011;7127;49.372;8.166;2023-03-31T09:31:22;2.80;;;1.10;;
14100;SDS011;7127;49.372;8.166;2023-03-31T09:33:52;1.47;;;1.03;;
14100;SDS011;7127;49.372;8.166;2023-03-31T09:36:24;1.93;;;0.90;;
14100;SDS011;7127;49.372;8.166;2023-03-31T09:38:51;1.83;;;0.93;;
14100;SDS011;7127;49.372;8.166;2023-03-31T09:41:18;2.47;;;0.97;;
14100;SDS011;7127;49.372;8.166;2023-03-31T09:43:45;2.80;;;1.20;;
14100;SDS011;7127;49.372;8.166;2023-03-31T09:46:17;3.17;;;1.20;;
14100;SDS011;7127;49.372;8.166;2023-03-31T09:48:53;1.63;;;1.13;;
14100;SDS011;7127;49.372;8.166;2023-03-31T09:51:28;2.40;;;1.20;;
14100;SDS011;7127;49.372;8.166;2023-03-31T09:54:00;4.67;;;1.60;;
14100;SDS011;7127;49.372;8.166;2023-03-31T09:56:34;3.50;;;1.30;;
14100;SDS011;7127;49.372;8.166;2023-03-31T09:59:13;2.43;;;1.20;;
14100;SDS011;7127;49.372;8.166;2023-03-31T10:01:43;2.07;;;1.20;;
14100;SDS011;7127;49.372;8.166;2023-03-31T10:04:16;2.63;;;1.43;;
14100;SDS011;7127;49.372;8.166;2023-03-31T10:06:47;3.43;;;1.37;;
14100;SDS011;7127;49.372;8.166;2023-03-31T10:09:17;4.43;;;1.40;;
14100;SDS011;7127;49.372;8.166;2023-03-31T10:11:52;3.70;;;1.40;;
14100;SDS011;7127;49.372;8.166;2023-03-31T10:14:25;1.60;;;1.10;;
14100;SDS011;7127;49.372;8.166;2023-03-31T10:17:03;2.63;;;1.50;;
14100;SDS011;7127;49.372;8.166;2023-03-31T10:19:32;1.37;;;0.93;;
14100;SDS011;7127;49.372;8.166;2023-03-31T10:22:02;2.10;;;1.00;;
14100;SDS011;7127;49.372;8.166;2023-03-31T10:24:37;2.33;;;1.00;;
14100;SDS011;7127;49.372;8.166;2023-03-31T10:27:06;2.13;;;0.93;;
14100;SDS011;7127;49.372;8.166;2023-03-31T10:29:41;1.73;;;1.03;;
14100;SDS011;7127;49.372;8.166;2023-03-31T10:32:08;3.67;;;1.50;;
14100;SDS011;7127;49.372;8.166;2023-03-31T10:34:42;3.23;;;2.00;;
14100;SDS011;7127;49.372;8.166;2023-03-31T10:37:12;7.70;;;2.90;;
14100;SDS011;7127;49.372;8.166;2023-03-31T10:39:44;4.07;;;1.97;;
14100;SDS011;7127;49.372;8.166;2023-03-31T10:42:17;4.60;;;1.63;;
14100;SDS011;7127;49.372;8.166;2023-03-31T10:44:46;3.43;;;1.60;;
14100;SDS011;7127;49.372;8.166;2023-03-31T10:47:17;2.50;;;1.10;;
14100;SDS011;7127;49.372;8.166;2023-03-31T10:49:47;3.57;;;1.50;;
14100;SDS011;7127;49.372;8.166;2023-03-31T10:52:18;4.00;;;1.83;;
14100;SDS011;7127;49.372;8.166;2023-03-31T10:54:48;2.80;;;1.20;;
14100;SDS011;7127;49.372;8.166;2023-03-31T10:57:18;3.20;;;1.00;;
14100;SDS011;7127;49.372;8.166;2023-03-31T10:59:55;1.83;;;1.00;;
14100;SDS011;7127;49.372;8.166;2023-03-31T11:02:37;3.87;;;1.00;;
14100;SDS011;7127;49.372;8.166;2023-03-31T11:05:26;2.53;;;1.07;;
14100;SDS011;7127;49.372;8.166;2023-03-31T11:08:09;2.63;;;1.20;;
14100;SDS011;7127;49.372;8.166;2023-03-31T11:10:54;3.40;;;1.40;;
14100;SDS011;7127;49.372;8.166;2023-03-31T11:13:31;3.60;;;1.50;;
14100;SDS011;7127;49.372;8.166;2023-03-31T11:16:04;2.93;;;1.40;;
14100;SDS011;7127;49.372;8.166;2023-03-31T11:18:41;2.90;;;1.20;;
14100;SDS011;7127;49.372;8.166;2023-03-31T11:21:29;2.27;;;1.40;;
14100;SDS011;7127;49.372;8.166;2023-03-31T11:24:03;3.27;;;1.47;;
14100;SDS011;7127;49.372;8.166;2023-03-31T11:26:40;2.83;;;1.33;;
14100;SDS011;7127;49.372;8.166;2023-03-31T11:29:18;4.30;;;1.30;;
14100;SDS011;7127;49.372;8.166;2023-03-31T11:31:56;3.30;;;1.30;;
14100;SDS011;7127;49.372;8.166;2023-03-31T11:34:44;2.13;;;0.90;;
14100;SDS011;7127;49.372;8.166;2023-03-31T11:40:25;3.07;;;1.23;;
14100;SDS011;7127;49.372;8.166;2023-03-31T11:43:02;3.13;;;1.13;;
14100;SDS011;7127;49.372;8.166;2023-03-31T11:45:33;4.20;;;1.57;;
14100;SDS011;7127;49.372;8.166;2023-03-31T11:48:08;1.50;;;1.00;;
14100;SDS011;7127;49.372;8.166;2023-03-31T11:50:41;1.30;;;0.90;;
14100;SDS011;7127;49.372;8.166;2023-03-31T11:53:13;1.27;;;0.67;;
14100;SDS011;7127;49.372;8.166;2023-03-31T11:55:44;1.50;;;0.90;;
14100;SDS011;7127;49.372;8.166;2023-03-31T11:58:14;2.20;;;0.80;;
14100;SDS011;7127;49.372;8.166;2023-03-31T12:00:43;1.60;;;0.80;;
14100;SDS011;7127;49.372;8.166;2023-03-31T12:03:18;1.47;;;0.90;;
14100;SDS011;7127;49.372;8.166;2023-03-31T12:05:48;1.47;;;0.60;;
14100;SDS011;7127;49.372;8.166;2023-03-31T12:08:21;0.60;;;0.50;;
14100;SDS011;7127;49.372;8.166;2023-03-31T12:10:58;1.83;;;0.80;;
14100;SDS011;7127;49.372;8.166;2023-03-31T12:13:31;2.00;;;0.77;;
14100;SDS011;7127;49.372;8.166;2023-03-31T12:16:07;1.27;;;0.73;;
14100;SDS011;7127;49.372;8.166;2023-03-31T12:18:37;0.40;;;0.30;;
14100;SDS011;7127;49.372;8.166;2023-03-31T12:21:08;0.60;;;0.47;;
14100;SDS011;7127;49.372;8.166;2023-03-31T12:23:37;1.20;;;0.57;;
14100;SDS011;7127;49.372;8.166;2023-03-31T12:26:12;0.80;;;0.67;;
14100;SDS011;7127;49.372;8.166;2023-03-31T12:28:49;1.30;;;0.63;;
14100;SDS011;7127;49.372;8.166;2023-03-31T12:31:22;0.87;;;0.50;;
14100;SDS011;7127;49.372;8.166;2023-03-31T12:33:52;0.93;;;0.40;;
14100;SDS011;7127;49.372;8.166;2023-03-31T12:36:27;0.93;;;0.30;;
14100;SDS011;7127;49.372;8.166;2023-03-31T12:39:12;1.13;;;0.40;;
14100;SDS011;7127;49.372;8.166;2023-03-31T12:41:55;1.50;;;0.30;;
14100;SDS011;7127;49.372;8.166;2023-03-31T12:44:34;0.60;;;0.40;;
14100;SDS011;7127;49.372;8.166;2023-03-31T12:47:15;1.30;;;0.57;;
14100;SDS011;7127;49.372;8.166;2023-03-31T12:52:58;1.40;;;0.70;;
14100;SDS011;7127;49.372;8.166;2023-03-31T12:55:32;0.70;;;0.57;;
14100;SDS011;7127;49.372;8.166;2023-03-31T13:01:06;1.20;;;0.47;;
14100;SDS011;7127;49.372;8.166;2023-03-31T13:03:51;1.03;;;0.50;;
14100;SDS011;7127;49.372;8.166;2023-03-31T13:12:05;1.63;;;0.60;;
14100;SDS011;7127;49.372;8.166;2023-03-31T13:14:36;1.33;;;0.57;;
14100;SDS011;7127;49.372;8.166;2023-03-31T13:17:19;2.33;;;0.93;;
14100;SDS011;7127;49.372;8.166;2023-03-31T13:19:49;1.43;;;0.87;;
14100;SDS011;7127;49.372;8.166;2023-03-31T13:22:27;1.60;;;0.70;;
14100;SDS011;7127;49.372;8.166;2023-03-31T13:30:54;2.67;;;1.13;;
14100;SDS011;7127;49.372;8.166;2023-03-31T13:33:26;3.10;;;1.10;;
14100;SDS011;7127;49.372;8.166;2023-03-31T13:38:51;2.07;;;0.83;;
14100;SDS011;7127;49.372;8.166;2023-03-31T13:41:33;2.40;;;0.87;;
14100;SDS011;7127;49.372;8.166;2023-03-31T13:44:30;2.43;;;0.93;;
14100;SDS011;7127;49.372;8.166;2023-03-31T13:47:32;1.63;;;1.20;;
14100;SDS011;7127;49.372;8.166;2023-03-31T13:50:14;2.17;;;1.23;;
14100;SDS011;7127;49.372;8.166;2023-03-31T13:53:21;2.13;;;1.40;;
14100;SDS011;7127;49.372;8.166;2023-03-31T13:59:12;1.30;;;0.70;;
14100;SDS011;7127;49.372;8.166;2023-03-31T14:07:52;1.47;;;0.67;;
14100;SDS011;7127;49.372;8.166;2023-03-31T14:10:26;1.00;;;0.60;;
14100;SDS011;7127;49.372;8.166;2023-03-31T14:13:06;1.17;;;0.50;;
14100;SDS011;7127;49.372;8.166;2023-03-31T14:15:35;2.27;;;0.53;;
14100;SDS011;7127;49.372;8.166;2023-03-31T14:18:04;1.57;;;0.77;;
14100;SDS011;7127;49.372;8.166;2023-03-31T14:20:35;2.40;;;0.70;;
14100;SDS011;7127;49.372;8.166;2023-03-31T14:23:10;1.10;;;0.60;;
14100;SDS011;7127;49.372;8.166;2023-03-31T14:25:48;1.67;;;0.87;;
14100;SDS011;7127;49.372;8.166;2023-03-31T14:31:18;1.47;;;0.90;;
14100;SDS011;7127;49.372;8.166;2023-03-31T14:33:53;1.50;;;0.80;;
14100;SDS011;7127;49.372;8.166;2023-03-31T14:36:39;1.30;;;0.90;;
14100;SDS011;7127;49.372;8.166;2023-03-31T14:39:13;1.13;;;0.70;;
14100;SDS011;7127;49.372;8.166;2023-03-31T14:41:49;3.03;;;1.30;;
14100;SDS011;7127;49.372;8.166;2023-03-31T14:44:20;2.47;;;1.03;;
14100;SDS011;7127;49.372;8.166;2023-03-31T14:46:50;2.70;;;0.90;;
14100;SDS011;7127;49.372;8.166;2023-03-31T14:49:18;1.70;;;0.70;;
14100;SDS011;7127;49.372;8.166;2023-03-31T14:51:52;2.13;;;1.00;;
14100;SDS011;7127;49.372;8.166;2023-03-31T14:54:20;2.00;;;0.70;;
14100;SDS011;7127;49.372;8.166;2023-03-31T14:56:49;2.93;;;1.00;;
14100;SDS011;7127;49.372;8.166;2023-03-31T14:59:19;1.57;;;1.10;;
14100;SDS011;7127;49.372;8.166;2023-03-31T15:01:49;2.07;;;0.90;;
14100;SDS011;7127;49.372;8.166;2023-03-31T15:04:18;1.33;;;0.80;;
14100;SDS011;7127;49.372;8.166;2023-03-31T15:06:47;2.17;;;0.77;;
14100;SDS011;7127;49.372;8.166;2023-03-31T15:09:19;2.57;;;1.00;;
14100;SDS011;7127;49.372;8.166;2023-03-31T15:11:53;1.37;;;0.80;;
14100;SDS011;7127;49.372;8.166;2023-03-31T15:14:22;1.40;;;0.77;;
14100;SDS011;7127;49.372;8.166;2023-03-31T15:16:53;1.67;;;0.90;;
14100;SDS011;7127;49.372;8.166;2023-03-31T15:19:21;1.87;;;1.00;;
14100;SDS011;7127;49.372;8.166;2023-03-31T15:21:55;1.07;;;0.80;;
14100;SDS011;7127;49.372;8.166;2023-03-31T15:24:27;1.60;;;0.80;;
14100;SDS011;7127;49.372;8.166;2023-03-31T15:26:56;1.27;;;0.57;;
14100;SDS011;7127;49.372;8.166;2023-03-31T15:29:28;0.80;;;0.43;;
14100;SDS011;7127;49.372;8.166;2023-03-31T15:32:00;1.20;;;0.67;;
14100;SDS011;7127;49.372;8.166;2023-03-31T15:34:29;0.90;;;0.60;;
14100;SDS011;7127;49.372;8.166;2023-03-31T15:36:58;1.07;;;0.57;;
14100;SDS011;7127;49.372;8.166;2023-03-31T15:39:28;0.87;;;0.50;;
14100;SDS011;7127;49.372;8.166;2023-03-31T15:41:57;1.50;;;0.70;;
14100;SDS011;7127;49.372;8.166;2023-03-31T15:44:27;1.50;;;0.70;;
14100;SDS011;7127;49.372;8.166;2023-03-31T15:47:11;1.57;;;0.87;;
14100;SDS011;7127;49.372;8.166;2023-03-31T15:49:56;1.53;;;0.77;;
14100;SDS011;7127;49.372;8.166;2023-03-31T15:52:37;1.47;;;0.77;;
14100;SDS011;7127;49.372;8.166;2023-03-31T15:55:25;1.20;;;0.83;;
14100;SDS011;7127;49.372;8.166;2023-03-31T15:57:55;1.50;;;0.80;;
14100;SDS011;7127;49.372;8.166;2023-03-31T16:00:40;1.70;;;0.90;;
14100;SDS011;7127;49.372;8.166;2023-03-31T16:03:13;1.40;;;0.73;;
14100;SDS011;7127;49.372;8.166;2023-03-31T16:05:46;2.03;;;0.90;;
14100;SDS011;7127;49.372;8.166;2023-03-31T16:08:24;1.97;;;0.80;;
14100;SDS011;7127;49.372;8.166;2023-03-31T16:10:58;1.77;;;0.83;;